sensor_id;sensor_type;location;lat;lon;timestamp;P1;durP1;ratioP1;P2;durP2;ratioP2
51810;SDS011;52468;40.116;18.296;2023-02-20T00:01:04;13.77;;;8.87;;
51810;SDS011;52468;40.116;18.296;2023-02-20T00:03:32;12.33;;;8.80;;
51810;SDS011;52468;40.116;18.296;2023-02-20T00:06:00;11.23;;;7.77;;
51810;SDS011;52468;40.116;18.296;2023-02-20T00:08:28;11.43;;;7.77;;
51810;SDS011;52468;40.116;18.296;2023-02-20T00:10:55;17.27;;;9.07;;
51810;SDS011;52468;40.116;18.296;2023-02-20T00:13:23;12.40;;;8.17;;
51810;SDS011;52468;40.116;18.296;2023-02-20T00:15:51;11.07;;;8.03;;
51810;SDS011;52468;40.116;18.296;2023-02-20T00:18:19;9.87;;;7.77;;
51810;SDS011;52468;40.116;18.296;2023-02-20T00:20:47;11.63;;;7.37;;
51810;SDS011;52468;40.116;18.296;2023-02-20T00:23:14;14.47;;;7.97;;
51810;SDS011;52468;40.116;18.296;2023-02-20T00:25:43;11.73;;;7.20;;
51810;SDS011;52468;40.116;18.296;2023-02-20T00:28:10;11.43;;;7.73;;
51810;SDS011;52468;40.116;18.296;2023-02-20T00:30:38;12.97;;;8.37;;
51810;SDS011;52468;40.116;18.296;2023-02-20T00:33:06;8.93;;;7.20;;
51810;SDS011;52468;40.116;18.296;2023-02-20T00:35:34;10.90;;;7.60;;
51810;SDS011;52468;40.116;18.296;2023-02-20T00:38:04;10.40;;;7.20;;
51810;SDS011;52468;40.116;18.296;2023-02-20T00:40:33;11.50;;;7.17;;
51810;SDS011;52468;40.116;18.296;2023-02-20T00:43:01;10.90;;;7.20;;
51810;SDS011;52468;40.116;18.296;2023-02-20T00:45:29;12.80;;;7.63;;
51810;SDS011;52468;40.116;18.296;2023-02-20T00:47:57;13.87;;;7.97;;
51810;SDS011;52468;40.116;18.296;2023-02-20T00:50:25;12.23;;;7.13;;
51810;SDS011;52468;40.116;18.296;2023-02-20T00:52:52;11.53;;;6.47;;
51810;SDS011;52468;40.116;18.296;2023-02-20T00:55:20;11.90;;;7.67;;
51810;SDS011;52468;40.116;18.296;2023-02-20T00:57:48;10.67;;;8.10;;
51810;SDS011;52468;40.116;18.296;2023-02-20T01:00:24;10.43;;;7.83;;
51810;SDS011;52468;40.116;18.296;2023-02-20T01:02:54;11.53;;;6.67;;
51810;SDS011;52468;40.116;18.296;2023-02-20T01:05:22;15.83;;;8.40;;
51810;SDS011;52468;40.116;18.296;2023-02-20T01:07:51;9.87;;;7.30;;
51810;SDS011;52468;40.116;18.296;2023-02-20T01:10:20;12.63;;;7.37;;
51810;SDS011;52468;40.116;18.296;2023-02-20T01:12:48;10.33;;;7.20;;
51810;SDS011;52468;40.116;18.296;2023-02-20T01:15:16;14.77;;;7.80;;
51810;SDS011;52468;40.116;18.296;2023-02-20T01:17:44;11.97;;;7.97;;
51810;SDS011;52468;40.116;18.296;2023-02-20T01:20:13;9.87;;;8.50;;
51810;SDS011;52468;40.116;18.296;2023-02-20T01:22:40;9.67;;;7.47;;
51810;SDS011;52468;40.116;18.296;2023-02-20T01:25:09;12.90;;;8.90;;
51810;SDS011;52468;40.116;18.296;2023-02-20T01:27:37;11.37;;;7.37;;
51810;SDS011;52468;40.116;18.296;2023-02-20T01:30:05;12.47;;;9.17;;
51810;SDS011;52468;40.116;18.296;2023-02-20T01:32:35;13.10;;;8.60;;
51810;SDS011;52468;40.116;18.296;2023-02-20T01:35:03;12.57;;;8.23;;
51810;SDS011;52468;40.116;18.296;2023-02-20T01:37:33;14.77;;;9.53;;
51810;SDS011;52468;40.116;18.296;2023-02-20T01:40:02;14.37;;;9.60;;
51810;SDS011;52468;40.116;18.296;2023-02-20T01:42:31;12.00;;;9.23;;
51810;SDS011;52468;40.116;18.296;2023-02-20T01:45:17;13.07;;;9.67;;
51810;SDS011;52468;40.116;18.296;2023-02-20T01:47:49;13.90;;;9.40;;
51810;SDS011;52468;40.116;18.296;2023-02-20T01:50:24;16.20;;;10.53;;
51810;SDS011;52468;40.116;18.296;2023-02-20T01:52:57;12.60;;;9.67;;
51810;SDS011;52468;40.116;18.296;2023-02-20T01:58:03;15.90;;;11.20;;
51810;SDS011;52468;40.116;18.296;2023-02-20T02:00:37;19.87;;;11.03;;
51810;SDS011;52468;40.116;18.296;2023-02-20T02:03:06;22.17;;;11.60;;
51810;SDS011;52468;40.116;18.296;2023-02-20T02:05:45;19.63;;;11.13;;
51810;SDS011;52468;40.116;18.296;2023-02-20T02:08:15;16.57;;;11.33;;
51810;SDS011;52468;40.116;18.296;2023-02-20T02:10:48;19.73;;;11.27;;
51810;SDS011;52468;40.116;18.296;2023-02-20T02:13:31;16.30;;;11.27;;
51810;SDS011;52468;40.116;18.296;2023-02-20T02:22:38;20.47;;;11.97;;
51810;SDS011;52468;40.116;18.296;2023-02-20T02:36:20;22.33;;;14.93;;
51810;SDS011;52468;40.116;18.296;2023-02-20T02:39:20;23.43;;;15.20;;
51810;SDS011;52468;40.116;18.296;2023-02-20T02:42:17;26.00;;;15.07;;
51810;SDS011;52468;40.116;18.296;2023-02-20T02:47:24;29.63;;;17.43;;
51810;SDS011;52468;40.116;18.296;2023-02-20T02:52:33;28.87;;;17.93;;
51810;SDS011;52468;40.116;18.296;2023-02-20T02:55:09;25.17;;;15.13;;
51810;SDS011;52468;40.116;18.296;2023-02-20T02:57:37;24.47;;;17.07;;
51810;SDS011;52468;40.116;18.296;2023-02-20T03:00:07;31.07;;;18.27;;
51810;SDS011;52468;40.116;18.296;2023-02-20T03:02:47;28.70;;;19.03;;
51810;SDS011;52468;40.116;18.296;2023-02-20T03:05:17;30.33;;;19.20;;
51810;SDS011;52468;40.116;18.296;2023-02-20T03:07:50;27.10;;;17.60;;
51810;SDS011;52468;40.116;18.296;2023-02-20T03:10:21;29.87;;;18.00;;
51810;SDS011;52468;40.116;18.296;2023-02-20T03:13:00;31.33;;;21.30;;
51810;SDS011;52468;40.116;18.296;2023-02-20T03:15:33;25.80;;;17.65;;
51810;SDS011;52468;40.116;18.296;2023-02-20T03:20:43;29.57;;;20.43;;
51810;SDS011;52468;40.116;18.296;2023-02-20T03:23:19;33.10;;;18.27;;
51810;SDS011;52468;40.116;18.296;2023-02-20T03:25:54;32.83;;;18.23;;
51810;SDS011;52468;40.116;18.296;2023-02-20T03:31:12;31.63;;;19.50;;
51810;SDS011;52468;40.116;18.296;2023-02-20T03:33:46;30.43;;;19.10;;
51810;SDS011;52468;40.116;18.296;2023-02-20T03:37:22;43.78;;;20.40;;
51810;SDS011;52468;40.116;18.296;2023-02-20T03:40:01;30.97;;;20.33;;
51810;SDS011;52468;40.116;18.296;2023-02-20T03:42:57;30.95;;;19.55;;
51810;SDS011;52468;40.116;18.296;2023-02-20T03:46:01;36.03;;;20.30;;
51810;SDS011;52468;40.116;18.296;2023-02-20T03:48:35;36.50;;;20.37;;
51810;SDS011;52468;40.116;18.296;2023-02-20T03:51:10;37.50;;;21.97;;
51810;SDS011;52468;40.116;18.296;2023-02-20T03:54:04;31.40;;;20.97;;
51810;SDS011;52468;40.116;18.296;2023-02-20T03:56:37;38.80;;;21.37;;
51810;SDS011;52468;40.116;18.296;2023-02-20T03:59:13;34.90;;;22.87;;
51810;SDS011;52468;40.116;18.296;2023-02-20T04:01:45;36.67;;;21.60;;
51810;SDS011;52468;40.116;18.296;2023-02-20T04:04:20;38.87;;;22.70;;
51810;SDS011;52468;40.116;18.296;2023-02-20T04:09:22;36.77;;;22.43;;
51810;SDS011;52468;40.116;18.296;2023-02-20T04:12:12;46.00;;;23.40;;
51810;SDS011;52468;40.116;18.296;2023-02-20T04:14:43;37.73;;;23.33;;
51810;SDS011;52468;40.116;18.296;2023-02-20T04:17:15;39.57;;;26.37;;
51810;SDS011;52468;40.116;18.296;2023-02-20T04:19:52;44.30;;;23.50;;
51810;SDS011;52468;40.116;18.296;2023-02-20T04:22:28;46.90;;;25.53;;
51810;SDS011;52468;40.116;18.296;2023-02-20T04:27:45;40.47;;;24.40;;
51810;SDS011;52468;40.116;18.296;2023-02-20T04:30:14;41.73;;;24.93;;
51810;SDS011;52468;40.116;18.296;2023-02-20T04:32:43;56.03;;;27.43;;
51810;SDS011;52468;40.116;18.296;2023-02-20T04:35:15;44.43;;;25.77;;
51810;SDS011;52468;40.116;18.296;2023-02-20T04:37:46;45.77;;;26.63;;
51810;SDS011;52468;40.116;18.296;2023-02-20T04:40:15;40.83;;;24.80;;
51810;SDS011;52468;40.116;18.296;2023-02-20T04:42:45;45.17;;;25.67;;
51810;SDS011;52468;40.116;18.296;2023-02-20T04:45:12;43.70;;;26.43;;
51810;SDS011;52468;40.116;18.296;2023-02-20T04:47:40;45.67;;;26.10;;
51810;SDS011;52468;40.116;18.296;2023-02-20T04:50:09;50.73;;;26.83;;
51810;SDS011;52468;40.116;18.296;2023-02-20T04:52:42;44.27;;;25.97;;
51810;SDS011;52468;40.116;18.296;2023-02-20T04:55:10;47.40;;;25.80;;
51810;SDS011;52468;40.116;18.296;2023-02-20T04:57:38;46.97;;;26.87;;
51810;SDS011;52468;40.116;18.296;2023-02-20T05:00:07;44.73;;;25.87;;
51810;SDS011;52468;40.116;18.296;2023-02-20T05:02:37;45.57;;;26.43;;
51810;SDS011;52468;40.116;18.296;2023-02-20T05:05:06;46.80;;;27.03;;
51810;SDS011;52468;40.116;18.296;2023-02-20T05:07:41;45.63;;;27.13;;
51810;SDS011;52468;40.116;18.296;2023-02-20T05:10:12;51.03;;;28.27;;
51810;SDS011;52468;40.116;18.296;2023-02-20T05:12:44;49.83;;;28.70;;
51810;SDS011;52468;40.116;18.296;2023-02-20T05:15:13;52.10;;;31.33;;
51810;SDS011;52468;40.116;18.296;2023-02-20T05:17:41;51.37;;;29.93;;
51810;SDS011;52468;40.116;18.296;2023-02-20T05:20:09;49.23;;;27.73;;
51810;SDS011;52468;40.116;18.296;2023-02-20T05:22:37;57.77;;;29.53;;
51810;SDS011;52468;40.116;18.296;2023-02-20T05:25:06;48.13;;;28.07;;
51810;SDS011;52468;40.116;18.296;2023-02-20T05:27:34;58.80;;;31.63;;
51810;SDS011;52468;40.116;18.296;2023-02-20T05:30:05;55.20;;;28.97;;
51810;SDS011;52468;40.116;18.296;2023-02-20T05:32:33;53.57;;;30.37;;
51810;SDS011;52468;40.116;18.296;2023-02-20T05:35:01;56.17;;;31.60;;
51810;SDS011;52468;40.116;18.296;2023-02-20T05:37:29;56.70;;;30.27;;
51810;SDS011;52468;40.116;18.296;2023-02-20T05:39:59;58.27;;;30.70;;
51810;SDS011;52468;40.116;18.296;2023-02-20T05:42:27;61.60;;;32.93;;
51810;SDS011;52468;40.116;18.296;2023-02-20T05:44:55;54.77;;;32.50;;
51810;SDS011;52468;40.116;18.296;2023-02-20T05:47:23;65.63;;;32.57;;
51810;SDS011;52468;40.116;18.296;2023-02-20T05:49:50;60.63;;;32.90;;
51810;SDS011;52468;40.116;18.296;2023-02-20T05:52:18;59.23;;;33.97;;
51810;SDS011;52468;40.116;18.296;2023-02-20T05:54:46;64.30;;;34.00;;
51810;SDS011;52468;40.116;18.296;2023-02-20T05:57:14;61.00;;;34.47;;
51810;SDS011;52468;40.116;18.296;2023-02-20T05:59:42;62.07;;;32.63;;
51810;SDS011;52468;40.116;18.296;2023-02-20T06:02:10;60.60;;;33.30;;
51810;SDS011;52468;40.116;18.296;2023-02-20T06:04:38;66.63;;;35.60;;
51810;SDS011;52468;40.116;18.296;2023-02-20T06:07:06;66.80;;;35.00;;
51810;SDS011;52468;40.116;18.296;2023-02-20T06:09:36;70.87;;;34.70;;
51810;SDS011;52468;40.116;18.296;2023-02-20T06:12:07;72.60;;;33.87;;
51810;SDS011;52468;40.116;18.296;2023-02-20T06:14:35;75.90;;;35.73;;
51810;SDS011;52468;40.116;18.296;2023-02-20T06:17:03;71.93;;;36.37;;
51810;SDS011;52468;40.116;18.296;2023-02-20T06:19:31;71.03;;;36.33;;
51810;SDS011;52468;40.116;18.296;2023-02-20T06:21:59;72.13;;;37.27;;
51810;SDS011;52468;40.116;18.296;2023-02-20T06:24:27;65.53;;;37.17;;
51810;SDS011;52468;40.116;18.296;2023-02-20T06:26:55;83.27;;;40.53;;
51810;SDS011;52468;40.116;18.296;2023-02-20T06:29:23;78.27;;;41.53;;
51810;SDS011;52468;40.116;18.296;2023-02-20T06:31:51;76.57;;;38.13;;
51810;SDS011;52468;40.116;18.296;2023-02-20T06:34:19;75.53;;;38.93;;
51810;SDS011;52468;40.116;18.296;2023-02-20T06:36:49;78.30;;;39.40;;
51810;SDS011;52468;40.116;18.296;2023-02-20T06:39:17;79.67;;;42.53;;
51810;SDS011;52468;40.116;18.296;2023-02-20T06:41:45;74.07;;;39.33;;
51810;SDS011;52468;40.116;18.296;2023-02-20T06:44:13;72.40;;;37.93;;
51810;SDS011;52468;40.116;18.296;2023-02-20T06:46:41;75.80;;;37.80;;
51810;SDS011;52468;40.116;18.296;2023-02-20T06:49:09;69.57;;;38.33;;
51810;SDS011;52468;40.116;18.296;2023-02-20T06:51:37;69.27;;;37.87;;
51810;SDS011;52468;40.116;18.296;2023-02-20T06:54:06;65.27;;;34.83;;
51810;SDS011;52468;40.116;18.296;2023-02-20T06:56:36;65.63;;;32.87;;
51810;SDS011;52468;40.116;18.296;2023-02-20T06:59:05;67.53;;;34.50;;
51810;SDS011;52468;40.116;18.296;2023-02-20T07:01:38;52.97;;;30.30;;
51810;SDS011;52468;40.116;18.296;2023-02-20T07:04:18;47.60;;;27.60;;
51810;SDS011;52468;40.116;18.296;2023-02-20T07:06:48;49.33;;;27.23;;
51810;SDS011;52468;40.116;18.296;2023-02-20T07:09:16;39.33;;;24.57;;
51810;SDS011;52468;40.116;18.296;2023-02-20T07:11:45;41.33;;;24.77;;
51810;SDS011;52468;40.116;18.296;2023-02-20T07:14:15;44.90;;;25.40;;
51810;SDS011;52468;40.116;18.296;2023-02-20T07:16:42;32.20;;;19.83;;
51810;SDS011;52468;40.116;18.296;2023-02-20T07:19:10;29.13;;;21.17;;
51810;SDS011;52468;40.116;18.296;2023-02-20T07:21:39;36.70;;;23.17;;
51810;SDS011;52468;40.116;18.296;2023-02-20T07:24:07;34.80;;;21.50;;
51810;SDS011;52468;40.116;18.296;2023-02-20T07:26:34;33.77;;;18.27;;
51810;SDS011;52468;40.116;18.296;2023-02-20T07:29:05;29.60;;;17.07;;
51810;SDS011;52468;40.116;18.296;2023-02-20T07:31:33;23.87;;;15.37;;
51810;SDS011;52468;40.116;18.296;2023-02-20T07:34:01;29.40;;;16.07;;
51810;SDS011;52468;40.116;18.296;2023-02-20T07:36:34;25.23;;;15.93;;
51810;SDS011;52468;40.116;18.296;2023-02-20T07:39:02;24.00;;;15.20;;
51810;SDS011;52468;40.116;18.296;2023-02-20T07:41:32;23.73;;;15.33;;
51810;SDS011;52468;40.116;18.296;2023-02-20T07:44:05;23.17;;;15.97;;
51810;SDS011;52468;40.116;18.296;2023-02-20T07:46:33;20.63;;;14.50;;
51810;SDS011;52468;40.116;18.296;2023-02-20T07:49:02;22.73;;;14.10;;
51810;SDS011;52468;40.116;18.296;2023-02-20T07:51:31;17.57;;;13.80;;
51810;SDS011;52468;40.116;18.296;2023-02-20T07:53:59;20.67;;;13.27;;
51810;SDS011;52468;40.116;18.296;2023-02-20T07:56:27;21.40;;;13.93;;
51810;SDS011;52468;40.116;18.296;2023-02-20T07:58:56;16.43;;;12.30;;
51810;SDS011;52468;40.116;18.296;2023-02-20T08:01:26;21.83;;;12.60;;
51810;SDS011;52468;40.116;18.296;2023-02-20T08:03:55;18.87;;;11.63;;
51810;SDS011;52468;40.116;18.296;2023-02-20T08:06:23;19.87;;;11.63;;
51810;SDS011;52468;40.116;18.296;2023-02-20T08:08:50;22.83;;;12.90;;
51810;SDS011;52468;40.116;18.296;2023-02-20T08:11:18;18.63;;;11.33;;
51810;SDS011;52468;40.116;18.296;2023-02-20T08:13:48;15.00;;;11.10;;
51810;SDS011;52468;40.116;18.296;2023-02-20T08:16:16;16.83;;;12.13;;
51810;SDS011;52468;40.116;18.296;2023-02-20T08:18:44;15.80;;;10.10;;
51810;SDS011;52468;40.116;18.296;2023-02-20T08:21:12;19.17;;;10.50;;
51810;SDS011;52468;40.116;18.296;2023-02-20T08:23:39;16.97;;;11.53;;
51810;SDS011;52468;40.116;18.296;2023-02-20T08:26:07;16.90;;;10.87;;
51810;SDS011;52468;40.116;18.296;2023-02-20T08:28:36;14.07;;;11.23;;
51810;SDS011;52468;40.116;18.296;2023-02-20T08:31:04;13.10;;;10.77;;
51810;SDS011;52468;40.116;18.296;2023-02-20T08:33:32;14.83;;;10.57;;
51810;SDS011;52468;40.116;18.296;2023-02-20T08:36:00;12.93;;;8.10;;
51810;SDS011;52468;40.116;18.296;2023-02-20T08:38:32;12.97;;;9.57;;
51810;SDS011;52468;40.116;18.296;2023-02-20T08:41:06;13.40;;;8.70;;
51810;SDS011;52468;40.116;18.296;2023-02-20T08:46:05;11.37;;;8.53;;
51810;SDS011;52468;40.116;18.296;2023-02-20T08:48:34;11.93;;;7.70;;
51810;SDS011;52468;40.116;18.296;2023-02-20T08:51:03;11.17;;;8.43;;
51810;SDS011;52468;40.116;18.296;2023-02-20T08:53:32;10.53;;;7.80;;
51810;SDS011;52468;40.116;18.296;2023-02-20T08:56:00;10.40;;;6.83;;
51810;SDS011;52468;40.116;18.296;2023-02-20T08:58:28;11.97;;;7.57;;
51810;SDS011;52468;40.116;18.296;2023-02-20T09:00:56;9.43;;;7.27;;
51810;SDS011;52468;40.116;18.296;2023-02-20T09:03:24;8.10;;;6.70;;
51810;SDS011;52468;40.116;18.296;2023-02-20T09:05:53;11.17;;;7.97;;
51810;SDS011;52468;40.116;18.296;2023-02-20T09:08:21;10.07;;;7.83;;
51810;SDS011;52468;40.116;18.296;2023-02-20T09:10:49;11.37;;;7.53;;
51810;SDS011;52468;40.116;18.296;2023-02-20T09:13:16;11.43;;;7.57;;
51810;SDS011;52468;40.116;18.296;2023-02-20T09:15:44;12.73;;;8.43;;
51810;SDS011;52468;40.116;18.296;2023-02-20T09:18:13;10.23;;;7.40;;
51810;SDS011;52468;40.116;18.296;2023-02-20T09:20:41;12.77;;;7.00;;
51810;SDS011;52468;40.116;18.296;2023-02-20T09:23:09;10.80;;;7.07;;
51810;SDS011;52468;40.116;18.296;2023-02-20T09:25:37;13.90;;;7.97;;
51810;SDS011;52468;40.116;18.296;2023-02-20T09:28:05;11.80;;;7.20;;
51810;SDS011;52468;40.116;18.296;2023-02-20T09:30:33;10.33;;;7.83;;
51810;SDS011;52468;40.116;18.296;2023-02-20T09:33:00;10.73;;;7.40;;
51810;SDS011;52468;40.116;18.296;2023-02-20T09:35:29;11.50;;;7.63;;
51810;SDS011;52468;40.116;18.296;2023-02-20T09:37:57;8.47;;;7.03;;
51810;SDS011;52468;40.116;18.296;2023-02-20T09:40:26;17.77;;;7.60;;
51810;SDS011;52468;40.116;18.296;2023-02-20T09:43:03;8.83;;;7.13;;
51810;SDS011;52468;40.116;18.296;2023-02-20T09:45:33;13.73;;;7.87;;
51810;SDS011;52468;40.116;18.296;2023-02-20T09:49:07;10.33;;;7.03;;
51810;SDS011;52468;40.116;18.296;2023-02-20T09:51:19;10.00;;;6.82;;
51810;SDS011;52468;40.116;18.296;2023-02-20T09:53:54;13.70;;;7.87;;
51810;SDS011;52468;40.116;18.296;2023-02-20T09:56:34;11.07;;;7.60;;
51810;SDS011;52468;40.116;18.296;2023-02-20T10:02:33;10.20;;;7.20;;
51810;SDS011;52468;40.116;18.296;2023-02-20T10:05:06;7.50;;;6.65;;
51810;SDS011;52468;40.116;18.296;2023-02-20T10:07:55;9.73;;;7.23;;
51810;SDS011;52468;40.116;18.296;2023-02-20T10:10:25;8.90;;;6.53;;
51810;SDS011;52468;40.116;18.296;2023-02-20T10:26:06;8.57;;;7.10;;
51810;SDS011;52468;40.116;18.296;2023-02-20T10:28:48;14.43;;;7.40;;
51810;SDS011;52468;40.116;18.296;2023-02-20T10:31:35;8.90;;;6.57;;
51810;SDS011;52468;40.116;18.296;2023-02-20T10:34:08;12.47;;;7.37;;
51810;SDS011;52468;40.116;18.296;2023-02-20T10:36:50;11.60;;;7.57;;
51810;SDS011;52468;40.116;18.296;2023-02-20T10:39:21;9.50;;;6.97;;
51810;SDS011;52468;40.116;18.296;2023-02-20T10:44:46;8.27;;;6.60;;
51810;SDS011;52468;40.116;18.296;2023-02-20T10:47:29;7.20;;;6.28;;
51810;SDS011;52468;40.116;18.296;2023-02-20T10:50:27;8.30;;;6.43;;
51810;SDS011;52468;40.116;18.296;2023-02-20T10:53:03;7.50;;;6.13;;
51810;SDS011;52468;40.116;18.296;2023-02-20T10:55:57;9.43;;;7.40;;
51810;SDS011;52468;40.116;18.296;2023-02-20T11:01:13;9.77;;;6.97;;
51810;SDS011;52468;40.116;18.296;2023-02-20T11:04:00;11.40;;;6.27;;
51810;SDS011;52468;40.116;18.296;2023-02-20T11:06:33;8.53;;;5.63;;
51810;SDS011;52468;40.116;18.296;2023-02-20T11:09:06;9.90;;;7.57;;
51810;SDS011;52468;40.116;18.296;2023-02-20T11:11:38;9.73;;;7.30;;
51810;SDS011;52468;40.116;18.296;2023-02-20T11:16:41;9.67;;;6.27;;
51810;SDS011;52468;40.116;18.296;2023-02-20T11:22:12;11.18;;;7.45;;
51810;SDS011;52468;40.116;18.296;2023-02-20T11:24:44;8.43;;;6.63;;
51810;SDS011;52468;40.116;18.296;2023-02-20T11:27:19;9.03;;;7.00;;
51810;SDS011;52468;40.116;18.296;2023-02-20T11:29:59;8.30;;;5.97;;
51810;SDS011;52468;40.116;18.296;2023-02-20T11:37:38;5.67;;;4.93;;
51810;SDS011;52468;40.116;18.296;2023-02-20T11:40:20;7.87;;;6.00;;
51810;SDS011;52468;40.116;18.296;2023-02-20T11:42:54;10.33;;;6.13;;
51810;SDS011;52468;40.116;18.296;2023-02-20T11:45:25;10.77;;;6.00;;
51810;SDS011;52468;40.116;18.296;2023-02-20T11:48:13;13.85;;;6.95;;
51810;SDS011;52468;40.116;18.296;2023-02-20T11:50:50;9.30;;;5.90;;
51810;SDS011;52468;40.116;18.296;2023-02-20T11:53:23;8.18;;;6.25;;
51810;SDS011;52468;40.116;18.296;2023-02-20T11:58:39;10.73;;;7.00;;
51810;SDS011;52468;40.116;18.296;2023-02-20T12:01:27;7.30;;;5.30;;
51810;SDS011;52468;40.116;18.296;2023-02-20T12:03:59;10.87;;;7.03;;
51810;SDS011;52468;40.116;18.296;2023-02-20T12:09:02;10.50;;;5.80;;
51810;SDS011;52468;40.116;18.296;2023-02-20T12:11:32;5.77;;;5.17;;
51810;SDS011;52468;40.116;18.296;2023-02-20T12:14:00;7.97;;;5.07;;
51810;SDS011;52468;40.116;18.296;2023-02-20T12:16:35;10.37;;;7.83;;
51810;SDS011;52468;40.116;18.296;2023-02-20T12:24:52;8.77;;;5.70;;
51810;SDS011;52468;40.116;18.296;2023-02-20T12:35:34;7.70;;;5.70;;
51810;SDS011;52468;40.116;18.296;2023-02-20T12:47:12;7.63;;;6.33;;
51810;SDS011;52468;40.116;18.296;2023-02-20T12:52:48;8.70;;;5.90;;
51810;SDS011;52468;40.116;18.296;2023-02-20T13:00:58;6.53;;;5.17;;
51810;SDS011;52468;40.116;18.296;2023-02-20T13:03:46;6.07;;;5.43;;
51810;SDS011;52468;40.116;18.296;2023-02-20T13:06:31;7.77;;;6.03;;
51810;SDS011;52468;40.116;18.296;2023-02-20T13:09:22;10.23;;;7.27;;
51810;SDS011;52468;40.116;18.296;2023-02-20T13:12:12;9.83;;;6.50;;
51810;SDS011;52468;40.116;18.296;2023-02-20T13:20:08;9.30;;;6.50;;
51810;SDS011;52468;40.116;18.296;2023-02-20T13:22:37;11.05;;;8.50;;
51810;SDS011;52468;40.116;18.296;2023-02-20T13:28:01;10.83;;;5.90;;
51810;SDS011;52468;40.116;18.296;2023-02-20T13:30:39;10.10;;;7.27;;
51810;SDS011;52468;40.116;18.296;2023-02-20T13:33:17;7.93;;;6.40;;
51810;SDS011;52468;40.116;18.296;2023-02-20T13:35:56;10.50;;;7.20;;
51810;SDS011;52468;40.116;18.296;2023-02-20T13:38:25;9.43;;;6.10;;
51810;SDS011;52468;40.116;18.296;2023-02-20T13:46:07;8.97;;;6.53;;
51810;SDS011;52468;40.116;18.296;2023-02-20T13:48:49;10.73;;;6.57;;
51810;SDS011;52468;40.116;18.296;2023-02-20T13:59:25;9.77;;;7.87;;
51810;SDS011;52468;40.116;18.296;2023-02-20T14:02:15;10.10;;;7.80;;
51810;SDS011;52468;40.116;18.296;2023-02-20T14:04:56;14.53;;;9.07;;
51810;SDS011;52468;40.116;18.296;2023-02-20T14:07:44;9.33;;;6.50;;
51810;SDS011;52468;40.116;18.296;2023-02-20T14:12:44;10.63;;;7.50;;
51810;SDS011;52468;40.116;18.296;2023-02-20T14:15:19;12.60;;;7.50;;
51810;SDS011;52468;40.116;18.296;2023-02-20T14:17:50;9.40;;;6.50;;
51810;SDS011;52468;40.116;18.296;2023-02-20T14:20:20;10.40;;;7.77;;
51810;SDS011;52468;40.116;18.296;2023-02-20T14:23:14;11.60;;;9.10;;
51810;SDS011;52468;40.116;18.296;2023-02-20T14:26:00;13.95;;;9.20;;
51810;SDS011;52468;40.116;18.296;2023-02-20T14:28:32;9.27;;;7.78;;
51810;SDS011;52468;40.116;18.296;2023-02-20T14:31:12;10.35;;;8.10;;
51810;SDS011;52468;40.116;18.296;2023-02-20T14:34:08;9.57;;;6.97;;
51810;SDS011;52468;40.116;18.296;2023-02-20T14:37:27;14.80;;;9.17;;
51810;SDS011;52468;40.116;18.296;2023-02-20T14:42:41;12.90;;;8.57;;
51810;SDS011;52468;40.116;18.296;2023-02-20T14:45:13;7.60;;;6.47;;
51810;SDS011;52468;40.116;18.296;2023-02-20T14:47:53;9.07;;;6.77;;
51810;SDS011;52468;40.116;18.296;2023-02-20T14:50:30;9.33;;;6.57;;
51810;SDS011;52468;40.116;18.296;2023-02-20T14:55:44;9.77;;;7.40;;
51810;SDS011;52468;40.116;18.296;2023-02-20T14:58:17;9.40;;;7.03;;
51810;SDS011;52468;40.116;18.296;2023-02-20T15:00:49;12.18;;;7.20;;
51810;SDS011;52468;40.116;18.296;2023-02-20T15:03:20;14.80;;;10.83;;
51810;SDS011;52468;40.116;18.296;2023-02-20T15:06:03;11.73;;;6.97;;
51810;SDS011;52468;40.116;18.296;2023-02-20T15:08:32;10.73;;;7.80;;
51810;SDS011;52468;40.116;18.296;2023-02-20T15:11:09;12.57;;;8.40;;
51810;SDS011;52468;40.116;18.296;2023-02-20T15:13:40;10.20;;;7.47;;
51810;SDS011;52468;40.116;18.296;2023-02-20T15:18:47;8.23;;;6.87;;
51810;SDS011;52468;40.116;18.296;2023-02-20T15:24:21;10.33;;;7.00;;
51810;SDS011;52468;40.116;18.296;2023-02-20T15:26:52;7.93;;;5.72;;
51810;SDS011;52468;40.116;18.296;2023-02-20T15:29:21;11.30;;;6.43;;
51810;SDS011;52468;40.116;18.296;2023-02-20T15:31:58;7.33;;;5.87;;
51810;SDS011;52468;40.116;18.296;2023-02-20T15:34:35;12.50;;;7.37;;
51810;SDS011;52468;40.116;18.296;2023-02-20T15:37:24;11.10;;;8.35;;
51810;SDS011;52468;40.116;18.296;2023-02-20T15:40:04;8.47;;;5.87;;
51810;SDS011;52468;40.116;18.296;2023-02-20T15:42:38;11.77;;;7.50;;
51810;SDS011;52468;40.116;18.296;2023-02-20T15:45:06;16.33;;;7.27;;
51810;SDS011;52468;40.116;18.296;2023-02-20T15:47:35;10.43;;;7.57;;
51810;SDS011;52468;40.116;18.296;2023-02-20T15:50:03;7.90;;;6.53;;
51810;SDS011;52468;40.116;18.296;2023-02-20T15:52:31;12.30;;;9.20;;
51810;SDS011;52468;40.116;18.296;2023-02-20T15:55:00;13.90;;;8.07;;
51810;SDS011;52468;40.116;18.296;2023-02-20T15:57:28;22.10;;;13.53;;
51810;SDS011;52468;40.116;18.296;2023-02-20T15:59:59;19.27;;;15.00;;
51810;SDS011;52468;40.116;18.296;2023-02-20T16:02:28;14.10;;;11.63;;
51810;SDS011;52468;40.116;18.296;2023-02-20T16:04:55;17.17;;;9.80;;
51810;SDS011;52468;40.116;18.296;2023-02-20T16:07:23;13.97;;;9.83;;
51810;SDS011;52468;40.116;18.296;2023-02-20T16:09:51;13.33;;;10.03;;
51810;SDS011;52468;40.116;18.296;2023-02-20T16:12:20;11.43;;;9.87;;
51810;SDS011;52468;40.116;18.296;2023-02-20T16:14:53;11.43;;;8.53;;
51810;SDS011;52468;40.116;18.296;2023-02-20T16:17:22;12.53;;;9.30;;
51810;SDS011;52468;40.116;18.296;2023-02-20T16:19:55;21.80;;;13.37;;
51810;SDS011;52468;40.116;18.296;2023-02-20T16:22:22;13.80;;;10.27;;
51810;SDS011;52468;40.116;18.296;2023-02-20T16:24:50;16.53;;;9.07;;
51810;SDS011;52468;40.116;18.296;2023-02-20T16:27:25;14.07;;;10.27;;
51810;SDS011;52468;40.116;18.296;2023-02-20T16:29:56;23.03;;;15.90;;
51810;SDS011;52468;40.116;18.296;2023-02-20T16:32:25;11.53;;;9.07;;
51810;SDS011;52468;40.116;18.296;2023-02-20T16:34:55;12.63;;;8.80;;
51810;SDS011;52468;40.116;18.296;2023-02-20T16:37:24;14.70;;;10.20;;
51810;SDS011;52468;40.116;18.296;2023-02-20T16:39:54;13.73;;;10.37;;
51810;SDS011;52468;40.116;18.296;2023-02-20T16:44:54;21.08;;;13.27;;
51810;SDS011;52468;40.116;18.296;2023-02-20T16:47:26;21.10;;;16.73;;
51810;SDS011;52468;40.116;18.296;2023-02-20T16:49:57;39.60;;;24.97;;
51810;SDS011;52468;40.116;18.296;2023-02-20T16:52:29;34.63;;;20.77;;
51810;SDS011;52468;40.116;18.296;2023-02-20T16:54:59;21.10;;;14.40;;
51810;SDS011;52468;40.116;18.296;2023-02-20T16:57:30;17.73;;;12.63;;
51810;SDS011;52468;40.116;18.296;2023-02-20T16:59:58;17.70;;;11.53;;
51810;SDS011;52468;40.116;18.296;2023-02-20T17:02:28;18.77;;;11.90;;
51810;SDS011;52468;40.116;18.296;2023-02-20T17:04:58;17.97;;;12.67;;
51810;SDS011;52468;40.116;18.296;2023-02-20T17:07:26;18.13;;;11.17;;
51810;SDS011;52468;40.116;18.296;2023-02-20T17:09:56;16.67;;;11.07;;
51810;SDS011;52468;40.116;18.296;2023-02-20T17:12:24;16.60;;;12.57;;
51810;SDS011;52468;40.116;18.296;2023-02-20T17:14:52;17.00;;;12.73;;